createdAt,value
2022-11-28T00:01:59.928Z,167.95
2022-11-28T00:04:31.594Z,167.20
2022-11-28T00:07:03.318Z,71.55
2022-11-28T00:09:35.128Z,57.75
2022-11-28T00:12:06.929Z,78.90
2022-11-28T00:14:38.541Z,107.88
2022-11-28T00:17:10.174Z,113.88
2022-11-28T00:19:41.849Z,41.97
2022-11-28T00:22:13.555Z,70.45
2022-11-28T00:24:45.311Z,70.75
2022-11-28T00:27:16.959Z,53.92
2022-11-28T00:29:48.581Z,46.88
2022-11-28T00:32:20.262Z,43.47
2022-11-28T00:34:52.099Z,48.55
2022-11-28T00:37:23.754Z,42.95
2022-11-28T00:39:55.363Z,48.40
2022-11-28T00:42:29.431Z,40.85
2022-11-28T00:45:01.084Z,48.60
2022-11-28T00:47:35.553Z,40.60
2022-11-28T00:50:07.748Z,46.47
2022-11-28T00:52:39.759Z,49.70
2022-11-28T00:55:11.373Z,47.08
2022-11-28T00:57:43.011Z,42.00
2022-11-28T01:00:15.251Z,46.30
2022-11-28T01:02:47.046Z,42.97
2022-11-28T01:05:18.701Z,38.33
2022-11-28T01:07:53.565Z,42.40
2022-11-28T01:10:25.582Z,38.40
2022-11-28T01:13:00.546Z,37.08
2022-11-28T01:15:32.207Z,44.80
2022-11-28T01:18:03.954Z,53.35
2022-11-28T01:20:37.046Z,68.25
2022-11-28T01:23:08.785Z,66.40
2022-11-28T01:25:40.392Z,53.60
2022-11-28T01:28:12.019Z,52.33
2022-11-28T01:30:43.606Z,46.45
2022-11-28T01:33:15.330Z,46.83
2022-11-28T01:35:57.628Z,52.60
2022-11-28T01:38:29.446Z,48.08
2022-11-28T01:41:01.757Z,45.30
2022-11-28T01:43:34.416Z,46.40
2022-11-28T01:46:06.721Z,45.70
2022-11-28T01:48:41.926Z,47.38
2022-11-28T01:51:13.916Z,44.38
2022-11-28T01:53:49.543Z,39.85
2022-11-28T01:56:25.831Z,44.33
2022-11-28T01:59:02.545Z,38.72
2022-11-28T02:01:34.459Z,41.40
2022-11-28T02:04:06.553Z,37.17
2022-11-28T02:06:38.116Z,41.80
2022-11-28T02:09:12.926Z,40.22
2022-11-28T02:14:45.595Z,38.42
2022-11-28T02:17:38.877Z,37.83
2022-11-28T02:20:29.348Z,38.58
2022-11-28T02:23:38.640Z,35.88
2022-11-28T02:26:45.547Z,39.65
2022-11-28T02:29:35.840Z,35.78
2022-11-28T02:32:07.436Z,37.95
2022-11-28T02:34:56.670Z,35.72
2022-11-28T02:38:03.003Z,36.22
2022-11-28T02:40:53.223Z,36.70
2022-11-28T02:43:51.169Z,34.42
2022-11-28T02:46:32.359Z,37.13
2022-11-28T02:49:06.772Z,36.35
2022-11-28T02:51:46.959Z,36.72
2022-11-28T02:54:20.891Z,36.58
2022-11-28T02:56:54.662Z,31.17
2022-11-28T02:59:46.767Z,40.30
2022-11-28T03:02:25.440Z,38.75
2022-11-28T03:05:20.960Z,34.70
2022-11-28T03:10:51.967Z,35.40
2022-11-28T03:13:38.560Z,36.78
2022-11-28T03:16:34.916Z,32.60
2022-11-28T03:19:24.650Z,38.20
2022-11-28T03:22:41.061Z,36.83
2022-11-28T03:25:25.740Z,36.60
2022-11-28T03:28:12.411Z,37.85
2022-11-28T03:30:53.969Z,39.38
2022-11-28T03:33:31.236Z,33.97
2022-11-28T03:36:14.640Z,34.55
2022-11-28T03:38:51.115Z,34.90
2022-11-28T03:41:39.658Z,36.05
2022-11-28T03:44:21.004Z,36.78
2022-11-28T03:46:56.541Z,39.00
2022-11-28T03:49:35.001Z,36.05
2022-11-28T03:52:23.666Z,33.20
2022-11-28T03:55:06.848Z,35.53
2022-11-28T03:58:03.211Z,41.38
2022-11-28T04:00:42.134Z,38.42
2022-11-28T04:03:31.860Z,39.83
2022-11-28T04:06:26.088Z,36.35
2022-11-28T04:09:02.503Z,35.08
2022-11-28T04:11:49.776Z,35.85
2022-11-28T04:14:37.375Z,34.20
2022-11-28T04:17:34.077Z,35.95
2022-11-28T04:20:24.647Z,41.17
2022-11-28T04:23:02.543Z,35.92
2022-11-28T04:25:37.532Z,33.60
2022-11-28T04:28:16.533Z,33.53
2022-11-28T04:30:50.173Z,35.15
2022-11-28T04:33:24.047Z,35.28
2022-11-28T04:35:56.937Z,35.30
2022-11-28T04:38:30.007Z,36.03
2022-11-28T04:41:10.849Z,39.03
2022-11-28T04:43:48.718Z,41.63
2022-11-28T04:46:36.256Z,41.47
2022-11-28T04:49:07.899Z,34.53
2022-11-28T04:52:14.971Z,32.45
2022-11-28T04:55:01.325Z,34.00
2022-11-28T04:57:38.207Z,28.70
2022-11-28T05:00:13.416Z,34.63
2022-11-28T05:02:47.867Z,31.17
2022-11-28T05:05:23.598Z,31.17
2022-11-28T05:07:55.338Z,35.08
2022-11-28T05:10:27.086Z,30.52
2022-11-28T05:12:58.662Z,28.00
2022-11-28T05:15:30.415Z,29.55
2022-11-28T05:18:02.308Z,31.38
2022-11-28T05:20:35.009Z,31.15
2022-11-28T05:23:06.801Z,33.67
2022-11-28T05:25:40.037Z,33.13
2022-11-28T05:28:11.704Z,29.02
2022-11-28T05:30:43.335Z,35.55
2022-11-28T05:33:15.004Z,32.85
2022-11-28T05:35:46.626Z,30.17
2022-11-28T05:38:18.306Z,31.25
2022-11-28T05:40:50.906Z,32.88
2022-11-28T05:43:22.466Z,33.30
2022-11-28T05:45:55.001Z,33.38
2022-11-28T05:48:26.652Z,29.20
2022-11-28T05:50:58.368Z,39.50
2022-11-28T05:53:29.988Z,33.47
2022-11-28T05:56:13.666Z,35.78
2022-11-28T05:58:46.011Z,32.15
2022-11-28T06:01:20.820Z,35.67
2022-11-28T06:06:33.074Z,30.73
2022-11-28T06:11:37.734Z,31.88
2022-11-28T06:14:10.742Z,35.55
2022-11-28T06:16:43.653Z,30.98
2022-11-28T06:19:15.440Z,36.00
2022-11-28T06:21:50.272Z,31.58
2022-11-28T06:24:21.936Z,33.88
2022-11-28T06:26:53.707Z,35.17
2022-11-28T06:29:25.389Z,36.35
2022-11-28T06:31:57.282Z,40.80
2022-11-28T06:34:29.030Z,42.13
2022-11-28T06:37:00.768Z,36.47
2022-11-28T06:39:32.610Z,33.95
2022-11-28T06:42:04.482Z,33.72
2022-11-28T06:44:36.085Z,38.58
2022-11-28T06:47:08.779Z,41.63
2022-11-28T06:49:40.736Z,38.85
2022-11-28T06:52:12.706Z,37.17
2022-11-28T06:54:44.726Z,30.95
2022-11-28T06:57:22.371Z,27.52
2022-11-28T06:59:54.097Z,29.73
2022-11-28T07:02:28.706Z,35.10
2022-11-28T07:05:00.401Z,28.40
2022-11-28T07:07:45.653Z,26.70
2022-11-28T07:10:28.044Z,25.90
2022-11-28T07:13:05.093Z,31.67
2022-11-28T07:15:37.079Z,25.10
2022-11-28T07:18:08.821Z,28.80
2022-11-28T07:20:40.505Z,25.40
2022-11-28T07:23:12.095Z,30.90
2022-11-28T07:25:43.719Z,24.70
2022-11-28T07:28:18.436Z,28.52
2022-11-28T07:31:02.693Z,24.98
2022-11-28T07:33:37.848Z,32.13
2022-11-28T07:36:15.528Z,29.13
2022-11-28T07:38:52.854Z,30.67
2022-11-28T07:41:26.902Z,31.15
2022-11-28T07:44:04.347Z,24.02
2022-11-28T07:46:39.016Z,27.17
2022-11-28T07:51:43.549Z,28.33
2022-11-28T07:54:18.648Z,26.05
2022-11-28T07:57:12.432Z,30.42
2022-11-28T07:59:45.244Z,28.05
2022-11-28T08:02:20.058Z,27.23
2022-11-28T08:04:55.267Z,27.98
2022-11-28T08:07:27.135Z,26.65
2022-11-28T08:09:58.946Z,28.55
2022-11-28T08:12:30.670Z,30.00
2022-11-28T08:15:05.056Z,27.05
2022-11-28T08:17:38.294Z,27.65
2022-11-28T08:20:10.413Z,28.40
2022-11-28T08:22:44.904Z,29.30
2022-11-28T08:25:16.525Z,26.98
2022-11-28T08:27:51.024Z,28.98
2022-11-28T08:30:22.940Z,25.95
2022-11-28T08:32:54.617Z,27.33
2022-11-28T08:35:26.268Z,27.80
2022-11-28T08:38:01.761Z,32.17
2022-11-28T08:40:36.884Z,30.95
2022-11-28T08:43:09.797Z,28.20
2022-11-28T08:45:41.559Z,29.60
2022-11-28T08:48:15.419Z,31.48
2022-11-28T08:50:52.892Z,28.30
2022-11-28T08:53:24.578Z,29.92
2022-11-28T08:55:59.012Z,26.38
2022-11-28T08:58:33.790Z,28.95
2022-11-28T09:01:14.879Z,31.13
2022-11-28T09:03:50.914Z,29.08
2022-11-28T09:09:15.945Z,29.20
2022-11-28T09:11:54.577Z,33.78
2022-11-28T09:14:27.662Z,29.67
2022-11-28T09:17:05.776Z,28.77
2022-11-28T09:19:37.480Z,33.50
2022-11-28T09:22:09.133Z,28.52
2022-11-28T09:24:40.756Z,28.83
2022-11-28T09:27:13.505Z,27.25
2022-11-28T09:29:47.559Z,28.40
2022-11-28T09:32:19.363Z,32.25
2022-11-28T09:34:52.410Z,28.98
2022-11-28T09:37:24.208Z,28.08
2022-11-28T09:40:12.805Z,26.23
2022-11-28T09:42:47.091Z,30.42
2022-11-28T09:45:25.154Z,29.27
2022-11-28T09:48:34.252Z,30.05
2022-11-28T09:51:58.567Z,27.60
2022-11-28T09:54:47.190Z,27.67
2022-11-28T09:57:40.289Z,30.20
2022-11-28T10:00:22.866Z,30.38
2022-11-28T10:03:44.875Z,31.65
2022-11-28T10:06:41.903Z,30.05
2022-11-28T10:09:32.572Z,31.83
2022-11-28T10:12:43.922Z,27.70
2022-11-28T10:15:54.970Z,27.70
2022-11-28T10:18:45.151Z,28.67
2022-11-28T10:21:33.253Z,27.15
2022-11-28T10:24:16.390Z,29.13
2022-11-28T10:26:51.968Z,28.33
2022-11-28T10:29:44.723Z,29.27
2022-11-28T10:32:33.576Z,28.90
2022-11-28T10:35:31.832Z,28.17
2022-11-28T10:38:10.373Z,30.48
2022-11-28T10:40:55.994Z,31.38
2022-11-28T10:43:39.512Z,29.65
2022-11-28T10:46:48.751Z,27.75
2022-11-28T10:49:26.547Z,24.73
2022-11-28T10:52:04.278Z,27.60
2022-11-28T10:54:59.975Z,29.00
2022-11-28T10:58:21.194Z,29.90
2022-11-28T11:00:57.866Z,29.08
2022-11-28T11:03:35.894Z,26.23
2022-11-28T11:06:08.272Z,30.70
2022-11-28T11:08:41.668Z,25.53
2022-11-28T11:11:30.541Z,29.23
2022-11-28T11:14:05.469Z,26.67
2022-11-28T11:16:55.494Z,26.83
2022-11-28T11:19:41.967Z,29.17
2022-11-28T11:22:24.705Z,27.17
2022-11-28T11:25:12.318Z,29.25
2022-11-28T11:27:53.193Z,30.48
2022-11-28T11:30:26.064Z,26.27
2022-11-28T11:33:12.419Z,25.60
2022-11-28T11:35:49.453Z,25.83
2022-11-28T11:38:21.001Z,29.50
2022-11-28T11:40:55.764Z,27.08
2022-11-28T11:43:43.293Z,36.15
2022-11-28T11:46:17.225Z,27.67
2022-11-28T11:49:01.431Z,27.88
2022-11-28T11:51:39.122Z,33.20
2022-11-28T11:54:19.186Z,30.98
2022-11-28T11:57:05.745Z,26.90
2022-11-28T11:59:49.916Z,25.20
2022-11-28T12:02:34.351Z,26.73
2022-11-28T12:05:19.031Z,25.73
2022-11-28T12:08:07.773Z,27.50
2022-11-28T12:10:53.539Z,26.60
2022-11-28T12:13:28.072Z,27.90
2022-11-28T12:16:14.770Z,25.38
2022-11-28T12:19:18.234Z,26.65
2022-11-28T12:22:24.968Z,26.13
2022-11-28T12:25:11.652Z,26.70
2022-11-28T12:28:17.542Z,30.50
2022-11-28T12:31:03.501Z,25.10
2022-11-28T12:33:54.972Z,27.05
2022-11-28T12:37:06.252Z,27.10
2022-11-28T12:39:51.287Z,24.40
2022-11-28T12:42:41.346Z,27.67
2022-11-28T12:45:41.901Z,23.98
2022-11-28T12:48:34.759Z,27.05
2022-11-28T12:51:15.138Z,28.50
2022-11-28T12:54:10.279Z,29.35
2022-11-28T12:56:50.223Z,25.75
2022-11-28T13:00:15.260Z,26.67
2022-11-28T13:03:10.776Z,27.80
2022-11-28T13:08:51.577Z,25.45
2022-11-28T13:11:56.652Z,26.23
2022-11-28T13:14:37.231Z,23.65
2022-11-28T13:17:23.208Z,25.63
2022-11-28T13:20:08.432Z,26.08
2022-11-28T13:22:56.275Z,23.92
2022-11-28T13:26:02.654Z,26.85
2022-11-28T13:29:25.522Z,26.92
2022-11-28T13:32:19.430Z,29.15
2022-11-28T13:34:51.999Z,23.67
2022-11-28T13:41:22.819Z,27.10
2022-11-28T13:44:09.807Z,25.48
2022-11-28T13:46:46.165Z,25.98
2022-11-28T13:49:37.118Z,26.88
2022-11-28T13:52:19.019Z,21.73
2022-11-28T13:54:50.957Z,22.52
2022-11-28T13:57:39.898Z,23.45
2022-11-28T14:00:19.205Z,27.90
2022-11-28T14:02:59.093Z,25.13
2022-11-28T14:05:41.661Z,27.70
2022-11-28T14:08:35.170Z,25.50
2022-11-28T14:11:48.816Z,27.92
2022-11-28T14:14:36.100Z,27.98
2022-11-28T14:17:29.368Z,26.70
2022-11-28T14:20:30.716Z,27.25
2022-11-28T14:23:36.656Z,33.15
2022-11-28T14:29:12.720Z,25.73
2022-11-28T14:32:06.520Z,26.23
2022-11-28T14:34:46.249Z,28.03
2022-11-28T14:37:59.775Z,32.63
2022-11-28T14:40:54.922Z,30.30
2022-11-28T14:43:37.368Z,27.98
2022-11-28T14:46:15.192Z,29.88
2022-11-28T14:48:59.391Z,26.90
2022-11-28T14:51:51.548Z,24.65
2022-11-28T14:54:43.872Z,29.00
2022-11-28T14:57:24.069Z,31.58
2022-11-28T15:00:04.208Z,29.83
2022-11-28T15:02:58.557Z,26.90
2022-11-28T15:05:43.632Z,26.80
2022-11-28T15:08:38.132Z,24.15
2022-11-28T15:11:35.345Z,27.88
2022-11-28T15:14:20.786Z,31.38
2022-11-28T15:17:06.963Z,28.25
2022-11-28T15:19:49.723Z,27.70
2022-11-28T15:22:29.740Z,29.92
2022-11-28T15:25:01.915Z,28.35
2022-11-28T15:27:35.693Z,26.30
2022-11-28T15:30:29.368Z,28.42
2022-11-28T15:33:03.792Z,27.90
2022-11-28T15:35:37.773Z,31.00
2022-11-28T15:38:14.979Z,29.77
2022-11-28T15:40:51.671Z,27.10
2022-11-28T15:43:24.833Z,32.65
2022-11-28T15:46:01.878Z,33.80
2022-11-28T15:51:53.372Z,32.20
2022-11-28T15:54:36.364Z,33.22
2022-11-28T15:57:23.801Z,29.27
2022-11-28T15:59:57.202Z,29.63
2022-11-28T16:02:35.557Z,30.08
2022-11-28T16:05:16.461Z,33.78
2022-11-28T16:07:54.391Z,34.60
2022-11-28T16:10:32.631Z,38.25
2022-11-28T16:13:20.918Z,32.95
2022-11-28T16:15:55.680Z,33.03
2022-11-28T16:18:31.200Z,34.72
2022-11-28T16:21:04.365Z,36.92
2022-11-28T16:23:38.216Z,33.63
2022-11-28T16:26:26.696Z,33.27
2022-11-28T16:29:10.030Z,34.78
2022-11-28T16:31:44.415Z,32.22
2022-11-28T16:34:16.840Z,29.98
2022-11-28T16:36:50.595Z,31.25
2022-11-28T16:39:26.781Z,31.48
2022-11-28T16:42:12.500Z,28.33
2022-11-28T16:44:46.341Z,28.17
2022-11-28T16:47:27.164Z,30.48
2022-11-28T16:50:19.522Z,31.50
2022-11-28T16:52:55.724Z,30.45
2022-11-28T16:55:27.298Z,31.30
2022-11-28T16:58:11.496Z,32.15
2022-11-28T17:00:47.803Z,31.60
2022-11-28T17:03:52.690Z,31.40
2022-11-28T17:06:33.986Z,32.45
2022-11-28T17:09:09.907Z,91.53
2022-11-28T17:11:45.309Z,36.25
2022-11-28T17:14:21.800Z,35.97
2022-11-28T17:16:56.202Z,34.25
2022-11-28T17:19:30.546Z,35.33
2022-11-28T17:22:06.361Z,36.55
2022-11-28T17:24:37.994Z,34.47
2022-11-28T17:27:12.466Z,34.67
2022-11-28T17:29:47.581Z,36.03
2022-11-28T17:32:19.202Z,35.53
2022-11-28T17:34:50.861Z,32.40
2022-11-28T17:37:22.457Z,36.90
2022-11-28T17:40:20.200Z,30.63
2022-11-28T17:42:51.799Z,34.97
2022-11-28T17:45:27.496Z,31.95
2022-11-28T17:48:02.160Z,34.80
2022-11-28T17:50:35.019Z,32.83
2022-11-28T17:53:07.315Z,30.45
2022-11-28T17:55:41.282Z,34.17
2022-11-28T17:58:21.839Z,31.15
2022-11-28T18:01:00.228Z,31.52
2022-11-28T18:03:32.834Z,31.13
2022-11-28T18:06:05.442Z,33.47
2022-11-28T18:08:44.679Z,33.15
2022-11-28T18:11:20.287Z,33.53
2022-11-28T18:13:53.462Z,34.28
2022-11-28T18:16:29.872Z,33.97
2022-11-28T18:19:03.787Z,36.28
2022-11-28T18:21:35.603Z,37.30
2022-11-28T18:24:13.038Z,36.75
2022-11-28T18:26:45.940Z,37.08
2022-11-28T18:29:17.554Z,38.05
2022-11-28T18:31:49.553Z,34.72
2022-11-28T18:34:21.244Z,36.17
2022-11-28T18:37:00.700Z,35.38
2022-11-28T18:39:37.835Z,34.40
2022-11-28T18:44:43.908Z,39.85
2022-11-28T18:47:15.910Z,34.92
2022-11-28T18:49:47.691Z,34.45
2022-11-28T18:52:19.328Z,31.85
2022-11-28T18:54:53.029Z,34.72
2022-11-28T18:57:30.013Z,33.22
2022-11-28T19:00:08.094Z,38.05
2022-11-28T19:02:42.301Z,30.25
2022-11-28T19:05:17.049Z,32.95
2022-11-28T19:07:51.030Z,32.40
2022-11-28T19:10:23.235Z,34.88
2022-11-28T19:12:57.572Z,33.38
2022-11-28T19:15:29.580Z,34.65
2022-11-28T19:18:04.324Z,31.23
2022-11-28T19:20:41.241Z,37.33
2022-11-28T19:23:12.867Z,33.85
2022-11-28T19:25:47.373Z,37.92
2022-11-28T19:28:21.957Z,36.92
2022-11-28T19:30:54.270Z,34.55
2022-11-28T19:33:29.144Z,36.75
2022-11-28T19:36:09.188Z,38.72
2022-11-28T19:38:41.859Z,32.13
2022-11-28T19:41:22.119Z,34.97
2022-11-28T19:44:24.702Z,33.53
2022-11-28T19:47:04.272Z,36.70
2022-11-28T19:49:35.979Z,35.80
2022-11-28T19:52:09.983Z,34.58
2022-11-28T19:54:41.953Z,33.83
2022-11-28T19:57:16.552Z,35.10
2022-11-28T19:59:48.362Z,36.17
2022-11-28T20:02:30.226Z,37.03
2022-11-28T20:05:02.312Z,32.88
2022-11-28T20:07:34.006Z,35.92
2022-11-28T20:10:06.998Z,36.38
2022-11-28T20:12:40.223Z,35.17
2022-11-28T20:15:18.331Z,35.85
2022-11-28T20:17:50.700Z,32.05
2022-11-28T20:20:23.774Z,35.15
2022-11-28T20:22:57.536Z,34.33
2022-11-28T20:25:29.165Z,34.58
2022-11-28T20:28:03.401Z,35.70
2022-11-28T20:30:36.761Z,36.20
2022-11-28T20:33:08.416Z,37.15
2022-11-28T20:35:40.087Z,35.47
2022-11-28T20:38:15.060Z,37.20
2022-11-28T20:43:18.247Z,36.42
2022-11-28T20:45:50.009Z,34.80
2022-11-28T20:48:21.637Z,36.47
2022-11-28T20:50:53.292Z,38.13
2022-11-28T20:53:27.088Z,34.47
2022-11-28T20:56:05.779Z,35.60
2022-11-28T20:58:37.545Z,33.47
2022-11-28T21:01:17.261Z,32.65
2022-11-28T21:03:51.981Z,35.70
2022-11-28T21:06:23.688Z,36.35
2022-11-28T21:08:56.645Z,37.97
2022-11-28T21:11:55.603Z,34.10
2022-11-28T21:14:23.243Z,36.22
2022-11-28T21:16:55.630Z,36.97
2022-11-28T21:19:27.692Z,39.65
2022-11-28T21:22:00.024Z,35.22
2022-11-28T21:24:31.718Z,37.22
2022-11-28T21:27:03.848Z,34.53
2022-11-28T21:29:35.437Z,39.10
2022-11-28T21:32:12.172Z,39.92
2022-11-28T21:34:46.814Z,36.85
2022-11-28T21:37:18.466Z,36.30
2022-11-28T21:39:50.119Z,36.00
2022-11-28T21:42:21.892Z,35.63
2022-11-28T21:44:53.523Z,41.13
2022-11-28T21:47:27.136Z,39.20
2022-11-28T21:49:59.080Z,34.67
2022-11-28T21:52:33.218Z,39.30
2022-11-28T21:55:05.398Z,37.58
2022-11-28T21:57:42.245Z,37.80
2022-11-28T22:00:38.621Z,37.08
2022-11-28T22:03:13.913Z,36.38
2022-11-28T22:05:46.585Z,40.90
2022-11-28T22:08:21.729Z,33.55
2022-11-28T22:10:53.746Z,34.13
2022-11-28T22:13:25.296Z,39.70
2022-11-28T22:16:01.044Z,37.78
2022-11-28T22:18:32.785Z,37.80
2022-11-28T22:21:22.317Z,37.15
2022-11-28T22:23:59.845Z,35.60
2022-11-28T22:26:35.081Z,37.88
2022-11-28T22:29:15.302Z,37.03
2022-11-28T22:31:47.766Z,39.63
2022-11-28T22:34:22.377Z,38.40
2022-11-28T22:36:57.255Z,37.40
2022-11-28T22:42:00.451Z,37.40
2022-11-28T22:44:32.260Z,39.00
2022-11-28T22:47:04.281Z,40.38
2022-11-28T22:49:38.590Z,37.65
2022-11-28T22:52:12.160Z,36.63
2022-11-28T22:54:44.189Z,39.60
2022-11-28T22:57:16.898Z,39.70
2022-11-28T22:59:49.077Z,38.80
2022-11-28T23:02:21.169Z,36.75
2022-11-28T23:04:55.875Z,37.53
2022-11-28T23:07:27.572Z,35.15
2022-11-28T23:09:59.910Z,34.47
2022-11-28T23:12:31.636Z,35.38
2022-11-28T23:15:06.290Z,36.53
2022-11-28T23:17:38.043Z,37.70
2022-11-28T23:20:10.532Z,36.22
2022-11-28T23:22:44.587Z,35.88
2022-11-28T23:25:16.353Z,35.17
2022-11-28T23:27:48.146Z,35.08
2022-11-28T23:30:19.856Z,33.75
2022-11-28T23:32:52.203Z,32.22
2022-11-28T23:35:23.799Z,34.03
2022-11-28T23:37:55.396Z,30.40
2022-11-28T23:40:28.661Z,33.13
2022-11-28T23:43:00.419Z,31.30
2022-11-28T23:45:32.072Z,29.88
2022-11-28T23:48:05.186Z,33.88
2022-11-28T23:50:36.733Z,34.42
2022-11-28T23:53:11.020Z,32.17
2022-11-28T23:55:42.602Z,33.00
2022-11-28T23:58:15.394Z,29.75
